Time;durP1;ratioP1;P1;durP2;ratioP2;P2;SDS_P1;SDS_P2;PMS_P1;PMS_P2;Temp;Humidity;BMP_temperature;BMP_pressure;BME280_temperature;BME280_humidity;BME280_pressure;Samples;Min_cycle;Max_cycle;Signal;HPM_P1;HPM_P2
2020/12/01 00:02:25;;;;;;;2.60;1.75;;;8.50;88.40;;;;;;5034300;28;20056;-88
2020/12/01 00:04:51;;;;;;;1.90;1.50;;;8.60;88.50;;;;;;5033516;28;20013;-87
2020/12/01 00:07:18;;;;;;;3.85;1.65;;;8.60;88.80;;;;;;5034001;28;20044;-88
2020/12/01 00:09:44;;;;;;;2.35;1.75;;;8.70;88.50;;;;;;5031497;28;20014;-88
2020/12/01 00:12:10;;;;;;;2.10;1.50;;;8.70;88.40;;;;;;5039544;28;20037;-88
2020/12/01 00:14:36;;;;;;;1.90;1.60;;;8.70;88.30;;;;;;5052148;28;20017;-88
2020/12/01 00:17:01;;;;;;;1.98;1.60;;;8.80;88.40;;;;;;5054822;28;20029;-88
2020/12/01 00:19:27;;;;;;;1.58;1.27;;;8.80;88.40;;;;;;5057176;28;20017;-88
2020/12/01 00:21:53;;;;;;;1.13;1.00;;;8.80;88.30;;;;;;5056067;28;20087;-89
2020/12/01 00:24:18;;;;;;;1.30;1.20;;;8.80;88.20;;;;;;5052734;28;20021;-87
2020/12/01 00:26:44;;;;;;;1.30;1.20;;;8.90;88.20;;;;;;5036884;28;20018;-88
2020/12/01 00:29:10;;;;;;;1.92;1.35;;;8.80;88.10;;;;;;5048811;28;20395;-88
2020/12/01 00:31:38;;;;;;;2.53;1.67;;;8.80;88.20;;;;;;5055638;28;20064;-88
2020/12/01 00:34:04;;;;;;;2.15;1.13;;;8.80;88.30;;;;;;5058474;28;20025;-89
2020/12/01 00:36:30;;;;;;;1.38;1.20;;;8.80;88.30;;;;;;5043910;28;20432;-88
2020/12/01 00:38:55;;;;;;;1.05;1.05;;;8.80;88.30;;;;;;5035117;28;20037;-88
2020/12/01 00:41:21;;;;;;;1.88;1.50;;;8.90;88.30;;;;;;5036792;28;20033;-88
2020/12/01 00:43:46;;;;;;;2.08;1.40;;;8.90;88.30;;;;;;5035604;28;20463;-88
2020/12/01 00:46:12;;;;;;;2.35;1.85;;;8.90;88.30;;;;;;5035508;28;20033;-88
2020/12/01 00:48:37;;;;;;;3.72;1.92;;;8.90;88.30;;;;;;5035297;28;20084;-87
2020/12/01 00:51:03;;;;;;;2.53;1.70;;;8.90;88.30;;;;;;5035112;28;20053;-87
2020/12/01 00:53:29;;;;;;;2.35;1.77;;;8.90;88.40;;;;;;5034272;28;20014;-88
2020/12/01 00:55:56;;;;;;;1.65;1.50;;;8.90;88.40;;;;;;5037310;28;20543;-90
2020/12/01 00:58:22;;;;;;;2.72;2.13;;;8.90;88.50;;;;;;5037224;28;20033;-90
2020/12/01 01:00:49;;;;;;;1.73;1.50;;;8.90;88.50;;;;;;5036445;28;20049;-88
2020/12/01 01:03:19;;;;;;;2.65;1.90;;;8.90;88.50;;;;;;5036120;28;20031;-91
2020/12/01 01:05:46;;;;;;;;;;;9.00;88.50;;;;;;5037879;28;20438;-87
2020/12/01 01:08:13;;;;;;;2.00;1.33;;;8.90;88.20;;;;;;5035921;28;19909;-91
2020/12/01 01:10:41;;;;;;;1.27;1.20;;;8.90;88.50;;;;;;5069072;28;20047;-90
2020/12/01 01:13:08;;;;;;;2.58;1.63;;;8.90;88.60;;;;;;5053536;28;20041;-91
2020/12/01 01:15:34;;;;;;;1.60;1.50;;;9.00;88.50;;;;;;5020006;28;20463;-85
2020/12/01 01:18:11;;;;;;;1.65;1.40;;;9.00;88.50;;;;;;5018894;28;20459;-83
2020/12/01 01:20:37;;;;;;;2.28;2.03;;;9.00;88.50;;;;;;5035847;28;20414;-90
2020/12/01 01:23:03;;;;;;;3.05;1.85;;;9.00;88.60;;;;;;5034778;28;20083;-90
2020/12/01 01:25:29;;;;;;;1.52;1.42;;;9.00;88.60;;;;;;5036033;28;20033;-91
2020/12/01 01:28:19;;;;;;;1.60;1.50;;;9.10;88.80;;;;;;5035777;28;20452;-92
2020/12/01 01:30:45;;;;;;;;;;;9.10;88.60;;;;;;5053263;28;20099;-93
2020/12/01 01:33:12;;;;;;;1.52;1.25;;;9.00;88.40;;;;;;5035689;28;19913;-92
2020/12/01 01:35:39;;;;;;;1.25;1.15;;;9.10;88.70;;;;;;5037950;28;20029;-92
2020/12/01 01:38:07;;;;;;;2.22;1.38;;;9.10;88.70;;;;;;5035533;28;20018;-92
2020/12/01 01:40:34;;;;;;;2.17;1.83;;;9.10;88.60;;;;;;5053677;28;20113;-89
2020/12/01 01:43:02;;;;;;;1.75;1.38;;;9.20;88.60;;;;;;5021416;28;20084;-91
2020/12/01 01:45:34;;;;;;;1.95;1.52;;;9.10;89.30;;;;;;5036154;28;20014;-90
2020/12/01 01:48:03;;;;;;;2.63;1.17;;;9.10;88.80;;;;;;5037589;28;20116;-91
2020/12/01 01:50:29;;;;;;;0.98;0.98;;;9.00;88.90;;;;;;5036513;28;20029;-91
2020/12/01 01:53:02;;;;;;;3.85;1.65;;;9.00;89.60;;;;;;5036242;28;20133;-91
2020/12/01 01:55:28;;;;;;;1.67;1.42;;;9.00;89.10;;;;;;5036722;28;20033;-90
2020/12/01 01:58:00;;;;;;;0.95;0.82;;;8.90;89.10;;;;;;5052110;28;20025;-90
2020/12/01 02:03:36;;;;;;;1.38;0.88;;;8.90;89.20;;;;;;5057280;28;20470;-90
2020/12/01 02:06:08;;;;;;;1.05;0.82;;;8.80;89.40;;;;;;5056861;28;20044;-88
2020/12/01 02:08:34;;;;;;;0.50;0.50;;;8.80;89.50;;;;;;5058838;28;20111;-88
2020/12/01 02:11:00;;;;;;;0.65;0.60;;;8.80;89.60;;;;;;5041874;28;20101;-88
2020/12/01 02:13:36;;;;;;;1.15;0.70;;;8.80;89.50;;;;;;5057589;28;20504;-90
2020/12/01 02:16:02;;;;;;;2.42;1.10;;;8.80;89.70;;;;;;5019888;28;20467;-88
2020/12/01 02:18:35;;;;;;;1.35;0.90;;;8.70;89.50;;;;;;5035187;28;20025;-89
2020/12/01 02:21:27;;;;;;;1.13;0.60;;;8.70;89.60;;;;;;5036040;28;20071;-90
2020/12/01 02:23:54;;;;;;;0.63;0.50;;;8.70;89.70;;;;;;5030878;28;20034;-88
2020/12/01 02:26:21;;;;;;;0.95;0.50;;;8.70;89.80;;;;;;5053443;28;20025;-89
2020/12/01 02:28:57;;;;;;;0.85;0.60;;;8.60;89.70;;;;;;5064289;28;20016;-89
2020/12/01 02:31:25;;;;;;;1.20;0.60;;;8.60;89.70;;;;;;5077626;28;20041;-88
2020/12/01 02:33:51;;;;;;;0.52;0.52;;;8.60;89.70;;;;;;5055800;28;20494;-88
2020/12/01 02:36:17;;;;;;;1.55;0.77;;;8.50;89.80;;;;;;5038004;28;20057;-88
2020/12/01 02:38:46;;;;;;;0.55;0.50;;;8.50;89.80;;;;;;5053155;28;20112;-87
2020/12/01 02:41:12;;;;;;;1.48;0.50;;;8.50;89.90;;;;;;5049368;28;20398;-89
2020/12/01 02:43:38;;;;;;;0.93;0.70;;;8.40;90.00;;;;;;5035563;28;20029;-88
2020/12/01 02:46:04;;;;;;;1.48;0.82;;;8.50;90.00;;;;;;5034121;28;20033;-87
2020/12/01 02:48:29;;;;;;;0.43;0.38;;;8.40;90.00;;;;;;5035010;28;20048;-87
2020/12/01 02:50:55;;;;;;;1.52;0.98;;;8.40;90.00;;;;;;5035046;28;20065;-85
2020/12/01 02:53:20;;;;;;;1.42;0.80;;;8.40;90.00;;;;;;5032949;28;20164;-85
2020/12/01 02:55:46;;;;;;;0.75;0.40;;;8.40;90.00;;;;;;5035148;28;20022;-88
2020/12/01 02:58:12;;;;;;;0.60;0.60;;;8.30;89.90;;;;;;5044895;28;20033;-87
2020/12/01 03:00:37;;;;;;;0.85;0.40;;;8.30;89.90;;;;;;5049429;28;20033;-87
2020/12/01 03:03:03;;;;;;;0.77;0.77;;;8.30;89.90;;;;;;5049158;28;20096;-88
2020/12/01 03:05:29;;;;;;;0.73;0.73;;;8.30;89.90;;;;;;5039070;28;20020;-88
2020/12/01 03:07:54;;;;;;;1.75;0.93;;;8.30;89.90;;;;;;5061914;28;20037;-90
2020/12/01 03:10:20;;;;;;;0.93;0.43;;;8.30;89.80;;;;;;5069405;28;20044;-88
2020/12/01 03:12:46;;;;;;;1.17;0.70;;;8.30;89.80;;;;;;5036316;28;20049;-90
2020/12/01 03:15:13;;;;;;;0.75;0.75;;;8.30;89.80;;;;;;5035207;28;20458;-86
2020/12/01 03:17:40;;;;;;;0.40;0.30;;;8.20;89.70;;;;;;5035592;28;20022;-88
2020/12/01 03:20:06;;;;;;;1.33;0.63;;;8.20;89.80;;;;;;5034231;28;20223;-88
2020/12/01 03:22:31;;;;;;;2.35;0.35;;;8.20;89.90;;;;;;5035084;28;20057;-87
2020/12/01 03:24:57;;;;;;;1.17;0.60;;;8.20;89.90;;;;;;5033084;28;20037;-84
2020/12/01 03:27:23;;;;;;;0.70;0.50;;;8.10;90.00;;;;;;5054296;28;20511;-87
2020/12/01 03:29:48;;;;;;;0.82;0.70;;;8.10;90.00;;;;;;5054269;28;20029;-87
2020/12/01 03:32:14;;;;;;;0.77;0.68;;;8.10;90.00;;;;;;5054154;28;20123;-87
2020/12/01 03:34:39;;;;;;;0.47;0.40;;;8.10;90.00;;;;;;5054220;28;20025;-87
2020/12/01 03:37:05;;;;;;;2.03;0.77;;;8.10;90.00;;;;;;5054130;28;20074;-86
2020/12/01 03:39:31;;;;;;;1.42;0.70;;;8.10;90.00;;;;;;5053713;28;20453;-87
2020/12/01 03:41:56;;;;;;;2.30;1.00;;;8.10;90.10;;;;;;5053074;28;20029;-88
2020/12/01 03:44:22;;;;;;;1.08;0.77;;;8.10;90.00;;;;;;5053089;28;20079;-89
2020/12/01 03:46:48;;;;;;;0.55;0.50;;;8.10;90.00;;;;;;5054890;28;20049;-88
2020/12/01 03:49:13;;;;;;;1.35;0.50;;;8.10;90.00;;;;;;5053593;28;20028;-88
2020/12/01 03:51:39;;;;;;;0.85;0.50;;;8.20;89.90;;;;;;5055164;28;20040;-87
2020/12/01 03:54:04;;;;;;;0.47;0.30;;;8.20;89.80;;;;;;5057079;28;20017;-87
2020/12/01 03:56:30;;;;;;;0.40;0.40;;;8.30;89.70;;;;;;5056581;28;20028;-86
2020/12/01 03:58:55;;;;;;;3.03;0.85;;;8.30;89.60;;;;;;5058236;28;20025;-86
2020/12/01 04:01:21;;;;;;;0.70;0.50;;;8.40;89.60;;;;;;5039983;28;20029;-86
2020/12/01 04:03:47;;;;;;;0.45;0.40;;;8.40;89.50;;;;;;5056184;28;20053;-87
2020/12/01 04:06:12;;;;;;;1.25;0.75;;;8.40;89.50;;;;;;5057857;28;20017;-88
2020/12/01 04:08:38;;;;;;;0.50;0.38;;;8.50;89.40;;;;;;5055443;28;20443;-86
2020/12/01 04:11:09;;;;;;;1.00;0.68;;;8.50;89.30;;;;;;5040103;28;20544;-87
2020/12/01 04:13:36;;;;;;;0.85;0.50;;;8.50;89.20;;;;;;5056655;28;20021;-86
2020/12/01 04:16:02;;;;;;;0.93;0.50;;;8.50;89.20;;;;;;5056509;28;20025;-87
2020/12/01 04:18:30;;;;;;;0.20;0.20;;;8.60;89.10;;;;;;5056403;28;20066;-85
2020/12/01 04:20:56;;;;;;;0.60;0.50;;;8.60;89.10;;;;;;5056029;28;20029;-87
2020/12/01 04:23:22;;;;;;;0.20;0.20;;;8.60;89.10;;;;;;5044437;28;20025;-86
2020/12/01 04:25:47;;;;;;;0.40;0.40;;;8.70;89.10;;;;;;5059283;28;20034;-86
2020/12/01 04:28:13;;;;;;;1.80;0.80;;;8.70;89.10;;;;;;5037435;28;20021;-86
2020/12/01 04:30:40;;;;;;;0.63;0.38;;;8.70;89.10;;;;;;5036565;28;20101;-87
2020/12/01 04:33:06;;;;;;;0.25;0.25;;;8.70;89.00;;;;;;5037424;28;20025;-88
2020/12/01 04:35:33;;;;;;;0.77;0.55;;;8.70;89.00;;;;;;5037377;28;20040;-86
2020/12/01 04:38:12;;;;;;;0.57;0.57;;;8.70;89.00;;;;;;5035100;28;20429;-87
2020/12/01 04:40:44;;;;;;;0.82;0.40;;;8.70;89.10;;;;;;5050817;28;20108;-87
2020/12/01 04:43:28;;;;;;;1.08;0.68;;;8.70;89.10;;;;;;5063239;28;20032;-87
2020/12/01 04:45:54;;;;;;;0.52;0.30;;;8.70;89.00;;;;;;5061372;28;20032;-87
2020/12/01 04:48:59;;;;;;;0.75;0.30;;;8.70;89.10;;;;;;5056245;28;20043;-87
2020/12/01 04:51:57;;;;;;;0.65;0.30;;;8.80;89.10;;;;;;5057234;28;20131;-87
2020/12/01 04:55:01;;;;;;;1.88;0.45;;;8.80;89.00;;;;;;5054817;28;20033;-87
2020/12/01 04:57:32;;;;;;;0.40;0.40;;;8.80;89.10;;;;;;5050472;28;20068;-87
2020/12/01 05:00:18;;;;;;;0.20;0.20;;;8.80;89.10;;;;;;5056888;28;20111;-88
2020/12/01 05:03:04;;;;;;;0.30;0.30;;;8.90;88.90;;;;;;5057354;28;20036;-87
2020/12/01 05:05:43;;;;;;;0.20;0.20;;;8.80;88.90;;;;;;5064280;28;20035;-88
2020/12/01 05:08:31;;;;;;;0.30;0.30;;;8.80;88.90;;;;;;5058493;28;20424;-88
2020/12/01 05:11:02;;;;;;;0.75;0.35;;;8.80;88.90;;;;;;5092303;28;20039;-87
2020/12/01 05:13:33;;;;;;;0.30;0.30;;;8.80;88.90;;;;;;5075204;28;20024;-88
2020/12/01 05:16:41;;;;;;;0.52;0.52;;;8.90;89.00;;;;;;5042355;28;20473;-87
2020/12/01 05:19:40;;;;;;;0.20;0.20;;;8.90;88.80;;;;;;5074193;28;20063;-88
2020/12/01 05:22:06;;;;;;;0.38;0.30;;;8.90;88.70;;;;;;5014871;28;20030;-88
2020/12/01 05:24:47;;;;;;;0.30;0.30;;;8.90;88.70;;;;;;5010985;28;20141;-87
2020/12/01 05:27:36;;;;;;;0.30;0.30;;;9.00;88.70;;;;;;5013873;28;20042;-87
2020/12/01 05:30:07;;;;;;;0.47;0.38;;;9.00;88.70;;;;;;4986646;28;20084;-86
2020/12/01 05:32:40;;;;;;;0.98;0.40;;;8.90;88.80;;;;;;5003265;28;20045;-87
2020/12/01 05:35:20;;;;;;;0.20;0.20;;;8.90;89.40;;;;;;5021338;28;20117;-87
2020/12/01 05:38:00;;;;;;;0.47;0.47;;;9.00;88.90;;;;;;5016748;28;20026;-88
2020/12/01 05:40:30;;;;;;;0.30;0.30;;;9.00;88.80;;;;;;4996927;28;20038;-87
2020/12/01 05:42:56;;;;;;;0.32;0.32;;;9.00;88.80;;;;;;4983446;28;20042;-88
2020/12/01 05:45:25;;;;;;;0.10;0.10;;;9.00;88.70;;;;;;4989801;28;20030;-88
2020/12/01 05:48:11;;;;;;;;;;;9.00;88.80;;;;;;4976397;28;20116;-88
2020/12/01 05:50:47;;;;;;;0.32;0.32;;;8.90;88.60;;;;;;4975010;28;19918;-87
2020/12/01 05:53:15;;;;;;;0.40;0.40;;;9.00;88.80;;;;;;4975267;28;20057;-89
2020/12/01 05:55:41;;;;;;;0.30;0.30;;;9.00;88.80;;;;;;4975417;28;20065;-90
2020/12/01 05:58:11;;;;;;;0.20;0.20;;;8.90;88.80;;;;;;4996660;28;20038;-86
2020/12/01 06:00:42;;;;;;;0.30;0.30;;;8.90;88.90;;;;;;5046164;28;20073;-88
2020/12/01 06:03:17;;;;;;;0.30;0.30;;;8.90;88.90;;;;;;5049416;28;20072;-85
2020/12/01 06:05:47;;;;;;;0.30;0.30;;;8.90;88.90;;;;;;5054850;28;20063;-86
2020/12/01 06:08:31;;;;;;;0.63;0.57;;;8.90;88.90;;;;;;5053621;28;20078;-85
2020/12/01 06:11:20;;;;;;;0.30;0.30;;;8.90;88.90;;;;;;5054677;28;20423;-87
2020/12/01 06:13:46;;;;;;;0.32;0.32;;;8.90;88.80;;;;;;5054075;28;20040;-91
2020/12/01 06:16:28;;;;;;;0.30;0.30;;;8.90;89.50;;;;;;5056182;28;20021;-90
2020/12/01 06:19:15;;;;;;;0.38;0.38;;;8.90;88.90;;;;;;5055815;28;20021;-91
2020/12/01 06:21:59;;;;;;;0.38;0.38;;;8.90;88.80;;;;;;5055031;28;20017;-85
2020/12/01 06:24:59;;;;;;;0.20;0.20;;;8.90;88.80;;;;;;5049397;28;20020;-85
2020/12/01 06:27:49;;;;;;;0.43;0.43;;;8.90;88.80;;;;;;5053495;28;20029;-85
2020/12/01 06:30:54;;;;;;;1.48;0.57;;;8.90;88.80;;;;;;5054236;28;20037;-86
2020/12/01 06:33:22;;;;;;;0.80;0.70;;;8.90;88.70;;;;;;5052349;28;20049;-89
2020/12/01 06:36:12;;;;;;;0.45;0.45;;;8.90;88.90;;;;;;5036205;28;20635;-85
2020/12/01 06:38:58;;;;;;;0.20;0.20;;;8.90;89.00;;;;;;5054578;28;20128;-88
2020/12/01 06:41:24;;;;;;;0.50;0.50;;;8.90;89.00;;;;;;4995307;28;20041;-88
2020/12/01 06:43:53;;;;;;;0.80;0.80;;;8.90;89.00;;;;;;4989323;28;20039;-90
2020/12/01 06:46:27;;;;;;;0.35;0.35;;;8.90;88.80;;;;;;4976421;28;20071;-91
2020/12/01 06:48:53;;;;;;;0.50;0.50;;;9.00;88.80;;;;;;4975295;28;20121;-86
2020/12/01 06:51:19;;;;;;;0.57;0.57;;;9.00;88.70;;;;;;4983312;28;20137;-85
2020/12/01 06:53:44;;;;;;;0.40;0.40;;;9.00;88.70;;;;;;4973605;28;20559;-86
2020/12/01 06:56:10;;;;;;;1.08;1.08;;;9.10;88.80;;;;;;4974250;28;20134;-85
2020/12/01 06:58:43;;;;;;;0.93;0.90;;;9.10;88.70;;;;;;4975078;28;20042;-90
2020/12/01 07:01:30;;;;;;;0.65;0.65;;;9.10;88.70;;;;;;4988975;28;20038;-89
2020/12/01 07:04:13;;;;;;;0.73;0.73;;;9.10;88.80;;;;;;4981852;28;20035;-88
2020/12/01 07:06:50;;;;;;;0.60;0.60;;;9.10;88.90;;;;;;4987607;28;20039;-89
2020/12/01 07:09:28;;;;;;;0.70;0.65;;;9.10;89.00;;;;;;4964318;28;20038;-86
2020/12/01 07:12:02;;;;;;;1.58;0.80;;;9.10;89.10;;;;;;4997039;28;20058;-85
2020/12/01 07:14:45;;;;;;;0.60;0.60;;;9.20;89.10;;;;;;5012143;28;20028;-82
2020/12/01 07:17:19;;;;;;;0.70;0.70;;;9.10;89.00;;;;;;4995826;28;20030;-87
2020/12/01 07:20:31;;;;;;;0.73;0.65;;;9.10;89.10;;;;;;5049907;28;20025;-82
2020/12/01 07:23:08;;;;;;;0.50;0.50;;;9.20;89.00;;;;;;5052843;28;20032;-89
2020/12/01 07:25:57;;;;;;;0.38;0.38;;;9.20;89.10;;;;;;5051595;28;20033;-82
2020/12/01 07:29:19;;;;;;;0.85;0.85;;;9.20;89.10;;;;;;5051325;28;20021;-82
2020/12/01 07:31:46;;;;;;;1.35;0.75;;;9.10;89.00;;;;;;5053851;28;20084;-93
2020/12/01 07:34:31;;;;;;;0.63;0.63;;;9.10;89.30;;;;;;5055123;28;20021;-93
2020/12/01 07:37:13;;;;;;;0.80;0.80;;;9.20;89.30;;;;;;5053248;28;20086;-92
2020/12/01 07:39:53;;;;;;;0.65;0.65;;;9.20;89.30;;;;;;5043395;28;20021;-92
2020/12/01 07:42:22;;;;;;;1.17;1.02;;;9.20;89.40;;;;;;5046465;28;20163;-92
2020/12/01 07:44:48;;;;;;;0.73;0.50;;;9.20;89.40;;;;;;5052956;28;20064;-89
2020/12/01 07:47:20;;;;;;;0.63;0.52;;;9.20;89.40;;;;;;5044773;28;20540;-89
2020/12/01 07:50:00;;;;;;;0.57;0.57;;;9.30;89.50;;;;;;5053943;28;20017;-85
2020/12/01 07:52:37;;;;;;;0.70;0.70;;;9.30;89.40;;;;;;5038260;28;20133;-93
2020/12/01 07:55:16;;;;;;;0.40;0.40;;;9.30;89.50;;;;;;5033450;28;20018;-86
2020/12/01 07:57:42;;;;;;;0.30;0.30;;;9.30;89.50;;;;;;5039364;28;20089;-92
2020/12/01 08:00:17;;;;;;;0.63;0.63;;;9.30;89.50;;;;;;5040535;28;20095;-89
2020/12/01 08:02:43;;;;;;;1.38;0.60;;;9.40;89.50;;;;;;5050591;28;20025;-88
2020/12/01 08:05:12;;;;;;;0.40;0.40;;;9.40;89.50;;;;;;5054058;28;20032;-90
2020/12/01 08:07:39;;;;;;;1.30;0.95;;;9.40;89.50;;;;;;5044575;28;20411;-91
2020/12/01 08:10:17;;;;;;;0.60;0.60;;;9.40;89.50;;;;;;5048817;28;20069;-94
2020/12/01 08:12:46;;;;;;;2.03;1.23;;;9.50;89.60;;;;;;5035352;28;20386;-84
2020/12/01 08:15:21;;;;;;;2.42;1.25;;;9.50;89.50;;;;;;5040946;28;20462;-87
2020/12/01 08:17:47;;;;;;;1.23;0.93;;;9.50;89.60;;;;;;5050918;28;20110;-90
2020/12/01 08:20:19;;;;;;;1.95;0.70;;;9.50;89.70;;;;;;5042723;28;20029;-90
2020/12/01 08:23:09;;;;;;;2.03;0.93;;;9.50;89.70;;;;;;5040491;28;20084;-84
2020/12/01 08:25:36;;;;;;;2.97;1.15;;;9.50;89.70;;;;;;5034191;28;20029;-81
2020/12/01 08:28:13;;;;;;;1.65;0.85;;;9.50;89.80;;;;;;5038573;28;20145;-82
2020/12/01 08:30:51;;;;;;;2.67;1.08;;;9.50;89.80;;;;;;5045637;28;20446;-81
2020/12/01 08:33:42;;;;;;;3.70;1.08;;;9.50;89.80;;;;;;5031156;28;20048;-82
2020/12/01 08:36:41;;;;;;;1.75;1.15;;;9.50;89.80;;;;;;5044249;28;20038;-87
2020/12/01 08:39:29;;;;;;;1.55;0.82;;;9.50;89.70;;;;;;5040379;28;20091;-84
2020/12/01 08:42:21;;;;;;;2.05;0.70;;;9.50;89.80;;;;;;5039387;28;20116;-89
2020/12/01 08:45:09;;;;;;;1.98;1.23;;;9.50;89.80;;;;;;5037578;28;20036;-83
2020/12/01 08:47:40;;;;;;;0.70;0.70;;;9.50;89.70;;;;;;5038303;28;20045;-86
2020/12/01 08:50:26;;;;;;;1.73;1.08;;;9.50;89.80;;;;;;5022667;28;20037;-85
2020/12/01 08:53:08;;;;;;;2.60;1.35;;;9.50;89.70;;;;;;5037776;28;20160;-83
2020/12/01 08:55:42;;;;;;;4.28;1.98;;;9.60;89.70;;;;;;5020999;28;20030;-81
2020/12/01 08:58:26;;;;;;;2.35;1.80;;;9.60;89.70;;;;;;5033242;28;20037;-84
2020/12/01 09:01:05;;;;;;;4.40;1.63;;;9.50;89.70;;;;;;5039062;28;20364;-85
2020/12/01 09:03:32;;;;;;;2.38;1.40;;;9.50;89.80;;;;;;5043294;28;20042;-85
2020/12/01 09:05:59;;;;;;;5.30;1.45;;;9.50;89.80;;;;;;5040120;28;20486;-81
2020/12/01 09:14:00;;;;;;;4.05;1.10;;;9.60;89.70;;;;;;5040522;28;20083;-81
2020/12/01 09:19:50;;;;;;;2.10;1.05;;;9.60;89.60;;;;;;5037730;28;20035;-86
2020/12/01 09:22:20;;;;;;;1.42;1.08;;;9.60;89.50;;;;;;5036501;28;20041;-85
2020/12/01 09:24:45;;;;;;;1.42;0.70;;;9.60;89.60;;;;;;5034607;28;20112;-84
2020/12/01 09:27:13;;;;;;;3.35;0.90;;;9.60;89.50;;;;;;5042277;28;20045;-84
2020/12/01 09:29:49;;;;;;;3.60;1.00;;;9.60;89.50;;;;;;5046453;28;20025;-83
2020/12/01 09:32:19;;;;;;;3.65;0.93;;;9.70;89.50;;;;;;5049764;28;20049;-81
2020/12/01 09:34:50;;;;;;;1.50;0.85;;;9.70;89.50;;;;;;5050365;28;20073;-81
2020/12/01 09:37:17;;;;;;;2.20;1.35;;;9.70;89.50;;;;;;5044915;28;20024;-82
2020/12/01 09:39:43;;;;;;;2.53;1.30;;;9.70;89.40;;;;;;5040156;28;20028;-87
2020/12/01 09:42:21;;;;;;;3.15;1.10;;;9.70;89.40;;;;;;5053499;28;20452;-85
2020/12/01 09:50:11;;;;;;;4.32;1.65;;;9.70;89.30;;;;;;5049125;28;20048;-82
2020/12/01 09:58:07;;;;;;;4.07;2.33;;;9.60;89.60;;;;;;5044733;28;20037;-82
2020/12/01 10:00:59;;;;;;;5.40;2.05;;;9.60;90.00;;;;;;5055586;28;20025;-84
2020/12/01 10:09:58;;;;;;;3.05;1.40;;;9.70;89.20;;;;;;5071834;28;20559;-81
2020/12/01 10:35:25;;;;;;;5.40;1.52;;;9.80;89.30;;;;;;5024171;28;20026;-85
2020/12/01 10:37:58;;;;;;;3.70;1.02;;;9.80;89.20;;;;;;4999079;28;20091;-84
2020/12/01 10:40:26;;;;;;;3.38;1.23;;;9.80;89.20;;;;;;5029276;28;20032;-83
2020/12/01 10:42:53;;;;;;;2.90;1.30;;;9.80;89.00;;;;;;5016833;28;20478;-86
2020/12/01 10:45:20;;;;;;;2.85;1.40;;;9.80;88.90;;;;;;5016351;28;20041;-85
2020/12/01 10:47:46;;;;;;;4.53;1.75;;;9.90;88.90;;;;;;5015644;28;20038;-85
2020/12/01 10:50:12;;;;;;;2.80;1.25;;;9.90;88.70;;;;;;5015687;28;20394;-87
2020/12/01 10:52:38;;;;;;;2.28;1.00;;;10.00;88.80;;;;;;5015144;28;20053;-85
2020/12/01 10:55:05;;;;;;;2.67;1.20;;;10.00;88.60;;;;;;5030904;28;20037;-83
2020/12/01 10:57:30;;;;;;;2.63;1.65;;;10.00;88.60;;;;;;5032001;28;20467;-82
2020/12/01 10:59:56;;;;;;;2.33;0.98;;;10.00;88.60;;;;;;5031099;28;20043;-82
2020/12/01 11:02:22;;;;;;;2.95;1.23;;;10.00;88.70;;;;;;5031661;28;20486;-86
2020/12/01 11:04:47;;;;;;;6.00;2.28;;;10.00;89.30;;;;;;5033632;28;20033;-82
2020/12/01 11:07:13;;;;;;;6.75;1.85;;;10.00;88.60;;;;;;5052066;28;20047;-86
2020/12/01 11:09:38;;;;;;;5.13;1.60;;;10.00;88.60;;;;;;5050603;28;20020;-86
2020/12/01 11:12:04;;;;;;;4.63;1.38;;;10.10;89.10;;;;;;5051800;28;20033;-83
2020/12/01 11:14:29;;;;;;;3.10;1.13;;;10.10;88.30;;;;;;5053186;28;20474;-80
2020/12/01 11:16:55;;;;;;;3.03;1.23;;;10.10;88.20;;;;;;5053221;28;20043;-83
2020/12/01 11:19:20;;;;;;;5.47;1.27;;;10.10;88.20;;;;;;5053057;28;20032;-84
2020/12/01 11:21:46;;;;;;;1.73;1.10;;;10.20;88.10;;;;;;5045834;28;20121;-81
2020/12/01 11:24:12;;;;;;;5.75;1.90;;;10.20;88.00;;;;;;5054100;28;20145;-83
2020/12/01 11:26:37;;;;;;;3.88;1.75;;;10.30;87.90;;;;;;5052281;28;20458;-82
2020/12/01 11:29:04;;;;;;;4.80;1.40;;;10.30;87.80;;;;;;5052029;28;20540;-81
2020/12/01 11:31:32;;;;;;;3.38;1.52;;;10.30;87.80;;;;;;5052979;28;20053;-83
2020/12/01 11:34:06;;;;;;;0.95;0.80;;;10.30;87.80;;;;;;5052386;28;20017;-80
2020/12/01 11:36:33;;;;;;;1.83;1.30;;;10.30;87.70;;;;;;5052855;28;20475;-84
2020/12/01 11:38:59;;;;;;;3.25;1.30;;;10.30;87.80;;;;;;5050173;28;20117;-90
2020/12/01 11:41:25;;;;;;;3.90;1.95;;;10.30;87.70;;;;;;5051649;28;20049;-82
2020/12/01 11:43:51;;;;;;;2.80;1.55;;;10.30;87.60;;;;;;5052792;28;20017;-86
2020/12/01 11:46:17;;;;;;;3.58;1.35;;;10.30;87.70;;;;;;5049261;28;20037;-86
2020/12/01 11:48:42;;;;;;;5.05;1.08;;;10.40;87.70;;;;;;5033728;28;20018;-87
2020/12/01 11:51:10;;;;;;;3.55;1.15;;;10.40;87.60;;;;;;5041135;28;20045;-87
2020/12/01 11:53:36;;;;;;;2.05;0.98;;;10.40;87.50;;;;;;5050623;28;20152;-81
2020/12/01 11:56:01;;;;;;;2.85;1.10;;;10.40;87.50;;;;;;5053195;28;20465;-81
2020/12/01 11:58:27;;;;;;;2.30;1.20;;;10.40;87.50;;;;;;5044896;28;20033;-84
2020/12/01 12:00:53;;;;;;;2.58;1.17;;;10.40;87.30;;;;;;5033702;28;20370;-85
2020/12/01 12:03:18;;;;;;;1.45;0.85;;;10.40;87.40;;;;;;5039732;28;20139;-85
2020/12/01 12:05:44;;;;;;;3.22;1.15;;;10.40;87.40;;;;;;5050116;28;20029;-84
2020/12/01 12:08:09;;;;;;;1.05;0.88;;;10.50;87.30;;;;;;5049239;28;20347;-88
2020/12/01 12:10:35;;;;;;;3.20;1.10;;;10.40;87.20;;;;;;5050469;28;20060;-83
2020/12/01 12:13:01;;;;;;;8.38;1.25;;;10.50;87.20;;;;;;5055129;28;20028;-86
2020/12/01 12:15:26;;;;;;;1.65;0.80;;;10.40;87.20;;;;;;5055088;28;20059;-85
2020/12/01 12:17:52;;;;;;;2.38;0.95;;;10.50;87.10;;;;;;5054320;28;20063;-79
2020/12/01 12:20:17;;;;;;;1.63;0.90;;;10.50;87.00;;;;;;5055891;28;20424;-84
2020/12/01 12:22:43;;;;;;;2.33;1.00;;;10.50;87.30;;;;;;5055854;28;20025;-79
2020/12/01 12:25:08;;;;;;;1.58;1.10;;;10.50;87.00;;;;;;5053866;28;20037;-80
2020/12/01 12:27:34;;;;;;;0.98;0.65;;;10.50;86.90;;;;;;5064743;28;20017;-81
2020/12/01 12:29:59;;;;;;;2.80;0.95;;;10.60;87.00;;;;;;5054148;28;20036;-82
2020/12/01 12:32:25;;;;;;;2.00;1.00;;;10.60;86.80;;;;;;5055200;28;20120;-87
2020/12/01 12:34:51;;;;;;;2.85;0.80;;;10.60;86.80;;;;;;5056211;28;20065;-88
2020/12/01 12:37:16;;;;;;;1.67;1.08;;;10.60;86.70;;;;;;5055779;28;20357;-87
2020/12/01 12:39:42;;;;;;;2.47;1.25;;;10.70;86.60;;;;;;5055026;28;20401;-83
2020/12/01 12:42:07;;;;;;;2.55;1.67;;;10.70;86.50;;;;;;5056704;28;20028;-86
2020/12/01 12:44:33;;;;;;;1.85;1.15;;;10.70;86.50;;;;;;5056715;28;20025;-87
2020/12/01 12:46:59;;;;;;;1.40;0.90;;;10.70;86.40;;;;;;5052642;28;20134;-92
2020/12/01 12:49:24;;;;;;;1.40;0.90;;;10.80;86.20;;;;;;5056162;28;20036;-84
2020/12/01 12:51:50;;;;;;;2.53;1.13;;;10.90;86.00;;;;;;5050132;28;20039;-81
2020/12/01 12:54:15;;;;;;;1.27;0.90;;;11.00;85.70;;;;;;5052512;28;20481;-84
2020/12/01 12:56:41;;;;;;;3.25;0.93;;;11.00;85.70;;;;;;5056519;28;20070;-88
2020/12/01 12:59:07;;;;;;;2.08;0.95;;;11.00;85.60;;;;;;5053705;28;20102;-84
2020/12/01 13:01:32;;;;;;;2.78;0.70;;;11.00;85.60;;;;;;5056443;28;20029;-84
2020/12/01 13:03:58;;;;;;;6.63;1.77;;;11.10;85.50;;;;;;5038831;28;20075;-87
2020/12/01 13:06:23;;;;;;;2.55;1.05;;;11.00;85.50;;;;;;5050448;28;20412;-82
2020/12/01 13:08:49;;;;;;;1.63;1.02;;;10.90;85.60;;;;;;5035699;28;20028;-83
2020/12/01 13:11:16;;;;;;;1.33;0.90;;;11.00;85.70;;;;;;5036879;28;20033;-89
2020/12/01 13:13:42;;;;;;;2.88;1.23;;;10.90;85.70;;;;;;5050308;28;20025;-86
2020/12/01 13:16:08;;;;;;;3.22;1.45;;;10.90;85.70;;;;;;5054747;28;20033;-87
2020/12/01 13:18:33;;;;;;;2.38;1.13;;;10.90;85.60;;;;;;5043386;28;20044;-81
2020/12/01 13:20:59;;;;;;;2.67;1.05;;;11.00;85.50;;;;;;5046674;28;20025;-88
2020/12/01 13:23:25;;;;;;;2.05;1.20;;;11.00;85.40;;;;;;5033338;28;20035;-90
2020/12/01 13:25:50;;;;;;;2.38;1.10;;;11.00;85.30;;;;;;5050010;28;20359;-83
2020/12/01 13:28:16;;;;;;;3.17;1.83;;;11.10;85.30;;;;;;5053479;28;20017;-83
2020/12/01 13:30:42;;;;;;;2.22;1.15;;;11.00;85.00;;;;;;5056563;28;20033;-80
2020/12/01 13:33:08;;;;;;;2.33;1.05;;;11.00;85.10;;;;;;5049861;28;20079;-83
2020/12/01 13:35:33;;;;;;;1.85;1.10;;;11.00;85.10;;;;;;5054468;28;20394;-85
2020/12/01 13:37:59;;;;;;;2.15;0.88;;;11.00;85.10;;;;;;5053781;28;20372;-86
2020/12/01 13:40:24;;;;;;;2.30;1.00;;;11.00;84.90;;;;;;5052227;28;20063;-82
2020/12/01 13:42:50;;;;;;;4.15;1.63;;;11.20;84.80;;;;;;5054429;28;20062;-81
2020/12/01 13:45:17;;;;;;;1.58;0.82;;;11.30;84.50;;;;;;5055376;28;20066;-81
2020/12/01 13:47:44;;;;;;;3.17;1.67;;;11.30;84.20;;;;;;5061699;28;20040;-86
2020/12/01 13:50:11;;;;;;;2.08;0.95;;;11.30;84.10;;;;;;5063627;28;20029;-84
2020/12/01 13:52:38;;;;;;;3.85;1.10;;;11.30;84.30;;;;;;5057739;28;20036;-80
2020/12/01 13:55:05;;;;;;;2.55;1.40;;;11.20;84.40;;;;;;5053836;28;20027;-79
2020/12/01 13:57:30;;;;;;;2.25;0.80;;;11.20;84.50;;;;;;5050071;28;20021;-86
2020/12/01 13:59:56;;;;;;;2.10;1.30;;;11.10;84.70;;;;;;5053835;28;20048;-85
2020/12/01 14:02:22;;;;;;;5.18;1.52;;;11.10;84.90;;;;;;5055042;28;20434;-82
2020/12/01 14:04:47;;;;;;;1.38;1.00;;;11.00;84.80;;;;;;5054126;28;20029;-88
2020/12/01 14:07:13;;;;;;;3.10;1.27;;;10.90;85.10;;;;;;5053858;28;20100;-88